.
WxDataArchive / Data Records for 2013-09-26
2013-09-25 September 2013 2013-09-27

Data Records for Thursday, 26 September 2013

Time	Temp	Chill	HIndex	Humid	Dewpt	 Wind 	HiWind	WindDir	Rain 	Barom 
-----	----	-----	------	-----	-----	------	------	-------	-----	----- 
00:00	55.7	55.7	55.7	81	50.0	0	0	---	0.00	29.955 
00:05	55.4	55.4	55.4	81	49.7	0	0	---	0.00	29.955 
00:10	55.1	55.1	55.1	81	49.4	0	0	---	0.00	29.955 
00:15	54.8	54.8	54.8	82	49.4	0	0	---	0.00	29.951 
00:20	54.5	54.5	54.5	82	49.1	0	0	---	0.00	29.951 
00:25	54.1	54.1	54.1	83	49.1	0	0	---	0.00	29.951 
00:30	53.8	53.8	53.8	83	48.8	0	0	---	0.00	29.948 
00:35	53.3	53.3	53.3	84	48.6	0	0	---	0.00	29.948 
00:40	53.1	53.1	53.1	85	48.7	0	0	---	0.00	29.948 
00:45	52.8	52.8	52.8	85	48.4	0	0	---	0.00	29.949 
00:50	52.3	52.3	52.3	86	48.2	0	0	---	0.00	29.949 
00:55	52.0	52.0	52.0	86	47.9	0	0	---	0.00	29.949 
01:00	51.7	51.7	51.7	87	48.0	0	0	---	0.00	29.950 
01:05	51.6	51.6	51.6	87	47.9	0	0	---	0.00	29.950 
01:10	51.3	51.3	51.3	88	47.9	0	0	---	0.00	29.950 
01:15	51.1	51.1	51.1	88	47.7	0	0	---	0.00	29.948 
01:20	50.8	50.8	50.8	88	47.4	0	0	---	0.00	29.948 
01:25	50.7	50.7	50.7	88	47.3	0	0	---	0.00	29.948 
01:30	50.5	50.5	50.5	89	47.4	0	0	---	0.00	29.947 
01:35	50.4	50.4	50.4	89	47.3	0	0	---	0.00	29.947 
01:40	50.2	50.2	50.2	89	47.1	0	0	---	0.00	29.947 
01:45	50.1	50.1	50.1	89	47.0	0	0	---	0.00	29.955 
01:50	49.8	49.8	49.8	90	47.0	0	0	---	0.00	29.955 
01:55	49.8	49.8	49.8	90	47.0	0	0	---	0.00	29.955 
02:00	49.6	49.6	49.6	90	46.8	0	0	---	0.00	29.956 
02:05	49.5	49.5	49.5	90	46.7	0	0	---	0.00	29.956 
02:10	49.4	49.4	49.4	90	46.6	0	0	---	0.00	29.956 
02:15	49.2	49.2	49.2	90	46.4	0	0	---	0.00	29.959 
02:20	49.1	49.1	49.1	91	46.6	0	0	---	0.00	29.959 
02:25	48.9	48.9	48.9	91	46.4	0	0	---	0.00	29.959 
02:30	48.9	48.9	48.9	91	46.4	0	0	---	0.00	29.964 
02:35	48.9	48.9	48.9	91	46.4	0	0	---	0.00	29.964 
02:40	48.8	48.8	48.8	91	46.3	0	0	---	0.00	29.964 
02:45	48.8	48.8	48.8	92	46.6	0	0	---	0.00	29.970 
02:50	48.8	48.8	48.8	92	46.6	0	0	---	0.00	29.970 
02:55	48.8	48.8	48.8	92	46.6	0	0	---	0.00	29.970 
03:00	48.6	48.6	48.6	92	46.4	0	0	---	0.00	29.970 
03:05	48.5	48.5	48.5	92	46.3	0	0	---	0.00	29.970 
03:10	48.3	48.3	48.3	92	46.1	0	0	---	0.00	29.970 
03:15	48.3	48.3	48.3	92	46.1	0	0	---	0.00	29.971 
03:20	48.2	48.2	48.2	92	46.0	0	0	---	0.00	29.971 
03:25	48.2	48.2	48.2	92	46.0	0	0	---	0.00	29.971 
03:30	48.0	48.0	48.0	92	45.8	0	0	---	0.00	29.974 
03:35	48.0	48.0	48.0	92	45.8	0	0	---	0.00	29.974 
03:40	48.0	48.0	48.0	92	45.8	0	0	---	0.00	29.974 
03:45	48.0	48.0	48.0	92	45.8	0	0	---	0.00	29.974 
03:50	48.0	48.0	48.0	92	45.8	0	0	---	0.00	29.974 
03:55	47.9	47.9	47.9	93	46.0	0	0	---	0.00	29.974 
04:00	47.9	47.9	47.9	93	46.0	0	0	---	0.00	29.974 
04:05	47.9	47.9	47.9	93	46.0	0	0	---	0.00	29.974 
04:10	47.9	47.9	47.9	93	46.0	0	0	---	0.00	29.974 
04:15	47.7	47.7	47.7	93	45.8	0	0	---	0.00	29.975 
04:20	47.7	47.7	47.7	93	45.8	0	0	---	0.00	29.975 
04:25	47.6	47.6	47.6	93	45.7	0	0	---	0.00	29.975 
04:30	47.6	47.6	47.6	93	45.7	0	0	---	0.00	29.976 
04:35	48.0	48.0	48.0	94	46.4	0	0	---	0.00	29.976 
04:40	48.2	48.2	48.2	94	46.6	0	0	---	0.00	29.976 
04:45	48.2	48.2	48.2	94	46.6	0	0	---	0.00	29.982 
04:50	48.3	48.3	48.3	94	46.7	0	0	---	0.00	29.982 
04:55	48.3	48.3	48.3	94	46.7	0	0	---	0.00	29.982 
05:00	48.2	48.2	48.2	94	46.6	0	0	---	0.00	29.988 
05:05	48.2	48.2	48.2	94	46.6	0	0	---	0.00	29.988 
05:10	48.0	48.0	48.0	94	46.4	0	0	---	0.00	29.988 
05:15	47.9	47.9	47.9	94	46.3	0	0	---	0.00	29.991 
05:20	47.9	47.9	47.9	94	46.3	0	0	---	0.00	29.991 
05:25	47.7	47.7	47.7	94	46.1	0	0	---	0.00	29.991 
05:30	47.6	47.6	47.6	94	46.0	0	0	---	0.00	29.993 
05:35	47.6	47.6	47.6	94	46.0	0	0	---	0.00	29.993 
05:40	47.9	47.9	47.9	94	46.3	0	0	---	0.00	29.993 
05:45	48.0	48.0	48.0	94	46.4	0	0	---	0.00	29.997 
05:50	48.5	48.5	48.5	95	47.1	0	0	---	0.00	29.997 
05:55	48.6	48.6	48.6	94	47.0	0	0	---	0.00	29.997 
06:00	48.8	48.8	48.8	94	47.1	0	0	---	0.00	30.000 
06:05	48.9	48.9	48.9	95	47.5	0	0	---	0.00	30.000 
06:10	49.1	49.1	49.1	95	47.7	0	0	---	0.00	30.000 
06:15	49.1	49.1	49.1	95	47.7	0	0	---	0.00	30.007 
06:20	49.1	49.1	49.1	95	47.7	0	0	---	0.00	30.007 
06:25	49.2	49.2	49.2	95	47.8	0	0	---	0.00	30.007 
06:30	49.2	49.2	49.2	95	47.8	0	0	---	0.00	30.010 
06:35	49.2	49.2	49.2	95	47.8	0	0	---	0.00	30.010 
06:40	49.2	49.2	49.2	95	47.8	0	0	---	0.00	30.010 
06:45	49.2	49.2	49.2	95	47.8	0	0	---	0.00	30.014 
06:50	49.1	49.1	49.1	95	47.7	0	0	---	0.00	30.014 
06:55	49.1	49.1	49.1	95	47.7	0	0	---	0.00	30.014 
07:00	49.1	49.1	49.1	95	47.7	0	0	---	0.00	30.022 
07:05	49.1	49.1	49.1	95	47.7	0	0	---	0.00	30.022 
07:10	49.1	49.1	49.1	95	47.7	0	0	---	0.00	30.022 
07:15	49.1	49.1	49.1	95	47.7	0	0	---	0.00	30.026 
07:20	49.1	49.1	49.1	95	47.7	0	0	---	0.00	30.026 
07:25	49.1	49.1	49.1	95	47.7	0	0	---	0.00	30.026 
07:30	49.1	49.1	49.1	95	47.7	0	0	---	0.00	30.027 
07:35	49.2	49.2	49.2	95	47.8	0	1	135	0.00	30.027 
07:40	49.2	49.2	49.2	95	47.8	0	0	---	0.00	30.027 
07:45	49.2	49.2	49.2	95	47.8	0	1	135	0.00	30.027 
07:50	49.4	49.4	49.4	95	48.0	0	0	---	0.00	30.027 
07:55	49.4	49.4	49.4	95	48.0	0	0	---	0.00	30.027 
08:00	49.4	49.4	49.4	95	48.0	0	0	---	0.00	30.037 
08:05	49.5	49.5	49.5	95	48.1	0	0	---	0.00	30.037 
08:10	49.6	49.6	49.6	96	48.5	0	0	---	0.00	30.037 
08:15	49.8	49.8	49.8	96	48.7	0	0	---	0.00	30.039 
08:20	50.1	50.1	50.1	96	49.0	0	0	---	0.00	30.039 
08:25	50.2	50.2	50.2	96	49.1	0	0	---	0.00	30.039 
08:30	50.4	50.4	50.4	96	49.3	0	0	---	0.00	30.041 
08:35	50.7	50.7	50.7	96	49.6	0	1	135	0.00	30.041 
08:40	51.1	51.1	51.1	96	50.0	0	0	---	0.00	30.041 
08:45	51.6	51.6	51.6	96	50.5	0	1	135	0.00	30.042 
08:50	52.0	52.0	52.0	96	50.9	0	2	135	0.00	30.042 
08:55	52.5	52.5	52.5	96	51.4	0	1	135	0.00	30.042 
09:00	52.8	52.8	52.8	96	51.7	0	2	135	0.00	30.040 
09:05	53.2	53.2	53.2	96	52.1	1	3	135	0.00	30.040 
09:10	53.5	53.5	53.5	96	52.4	0	1	135	0.00	30.040 
09:15	53.6	53.6	53.6	96	52.5	1	3	112	0.00	30.049 
09:20	53.9	53.9	53.9	96	52.8	0	2	112	0.00	30.049 
09:25	54.2	54.2	54.2	95	52.8	0	3	112	0.00	30.049 
09:30	54.7	54.7	54.7	95	53.3	1	5	112	0.00	30.051 
09:35	55.1	55.1	55.1	94	53.4	0	4	90	0.00	30.051 
09:40	55.4	55.4	55.4	94	53.7	0	2	90	0.00	30.051 
09:45	55.9	55.9	55.9	93	53.9	0	1	90	0.00	30.054 
09:50	56.5	56.5	56.5	93	54.5	1	4	90	0.00	30.054 
09:55	57.2	57.2	57.2	92	54.9	1	4	90	0.00	30.054 
10:00	57.6	57.6	57.6	90	54.7	1	4	112	0.00	30.055 
10:05	58.1	58.1	58.1	89	54.9	0	3	112	0.00	30.055 
10:10	58.6	58.6	58.6	89	55.4	0	1	112	0.00	30.055 
10:15	59.0	59.0	59.0	88	55.4	1	3	112	0.00	30.063 
10:20	59.6	59.6	59.6	88	56.0	0	2	112	0.00	30.063 
10:25	60.5	60.5	60.5	86	56.3	1	4	112	0.00	30.063 
10:30	61.5	61.5	61.5	84	56.6	1	4	112	0.00	30.064 
10:35	62.6	62.6	62.6	82	57.0	1	4	112	0.00	30.064 
10:40	63.4	63.4	63.4	80	57.1	2	6	90	0.00	30.064 
10:45	64.3	64.3	64.3	79	57.6	1	3	90	0.00	30.065 
10:50	65.0	65.0	65.0	77	57.6	1	4	90	0.00	30.065 
10:55	65.6	65.6	65.6	75	57.5	1	4	90	0.00	30.065 
11:00	66.3	66.3	66.3	74	57.8	1	3	90	0.00	30.063 
11:05	66.6	66.6	66.6	73	57.7	1	5	112	0.00	30.063 
11:10	66.9	66.9	66.9	71	57.2	1	4	90	0.00	30.063 
11:15	67.3	67.3	67.3	69	56.8	1	5	68	0.00	30.061 
11:20	67.6	67.6	67.6	68	56.7	2	4	90	0.00	30.061 
11:25	67.8	67.8	67.8	68	56.8	2	4	112	0.00	30.061 
11:30	68.1	68.1	68.1	69	57.5	1	4	68	0.00	30.059 
11:35	68.8	68.8	68.8	65	56.5	2	5	90	0.00	30.059 
11:40	69.1	69.1	69.1	63	56.0	2	7	90	0.00	30.059 
11:45	69.1	69.1	69.1	63	56.0	1	7	90	0.00	30.060 
11:50	69.4	69.4	69.4	64	56.7	1	3	68	0.00	30.060 
11:55	69.8	69.8	69.8	62	56.2	2	5	90	0.00	30.060 
12:00	69.9	69.9	69.9	60	55.4	2	6	90	0.00	30.060 
12:05	70.3	70.3	70.3	59	55.3	1	4	90	0.00	30.060 
12:10	70.8	70.8	70.8	56	54.3	1	3	90	0.00	30.060 
12:15	71.1	71.1	71.1	54	53.6	2	5	90	0.00	30.060 
12:20	70.9	70.9	70.9	56	54.4	2	4	90	0.00	30.060 
12:25	71.1	71.1	71.1	57	55.1	1	3	90	0.00	30.060 
12:30	71.5	71.5	71.5	55	54.5	2	4	90	0.00	30.057 
12:35	71.8	71.8	71.8	54	54.2	1	3	90	0.00	30.057 
12:40	72.0	72.0	72.0	51	52.9	1	3	90	0.00	30.057 
12:45	72.1	72.1	72.1	47	50.7	1	3	90	0.00	30.054 
12:50	72.5	72.5	72.5	52	53.9	0	2	90	0.00	30.054 
12:55	72.8	72.8	72.8	50	53.1	1	3	90	0.00	30.054 
13:00	73.2	73.2	73.2	47	51.7	1	4	90	0.00	30.049 
13:05	73.2	73.2	73.2	48	52.3	2	4	90	0.00	30.049 
13:10	73.3	73.3	73.3	45	50.7	2	5	90	0.00	30.049 
13:15	73.5	73.5	73.5	44	50.2	2	9	90	0.00	30.048 
13:20	73.7	73.7	73.7	44	50.4	2	5	90	0.00	30.048 
13:25	73.9	73.9	73.9	45	51.2	1	7	90	0.00	30.048 
13:30	74.0	74.0	74.0	41	48.8	2	5	90	0.00	30.046 
13:35	74.0	74.0	74.0	42	49.4	2	6	112	0.00	30.046 
13:40	74.4	74.4	74.4	43	50.4	1	4	68	0.00	30.046 
13:45	74.6	74.6	74.6	41	49.3	1	5	90	0.00	30.040 
13:50	74.7	74.7	74.7	40	48.8	2	5	112	0.00	30.040 
13:55	74.9	74.9	74.9	41	49.6	1	5	112	0.00	30.040 
14:00	74.9	74.9	74.9	43	50.9	1	4	90	0.00	30.033 
14:05	74.9	74.9	74.9	37	46.9	3	6	90	0.00	30.033 
14:10	74.7	74.7	74.7	38	47.4	3	6	90	0.00	30.033 
14:15	74.7	74.7	74.7	37	46.7	2	4	90	0.00	30.033 
14:20	74.9	74.9	74.9	39	48.3	1	5	90	0.00	30.033 
14:25	74.9	74.9	74.9	35	45.4	3	6	90	0.00	30.033 
14:30	75.1	75.1	77.2	34	44.8	1	6	112	0.00	30.031 
14:35	75.6	75.6	77.4	35	46.0	1	5	68	0.00	30.031 
14:40	75.8	75.8	77.3	32	43.8	2	4	135	0.00	30.031 
14:45	76.0	76.0	77.3	31	43.2	2	7	90	0.00	30.030 
14:50	75.8	75.8	77.3	31	43.0	2	6	90	0.00	30.030 
14:55	75.8	75.8	77.3	31	43.0	2	6	90	0.00	30.030 
15:00	76.0	76.0	77.5	34	45.6	2	6	90	0.00	30.027 
15:05	76.0	76.0	77.5	34	45.6	2	5	90	0.00	30.027 
15:10	76.1	76.1	77.4	32	44.1	2	6	90	0.00	30.027 
15:15	76.1	76.1	77.6	35	46.4	3	6	90	0.00	30.026 
15:20	76.0	76.0	77.5	33	44.8	2	6	90	0.00	30.026 
15:25	76.0	76.0	77.5	33	44.8	2	5	90	0.00	30.026 
15:30	76.3	76.3	77.6	34	45.8	1	6	90	0.00	30.025 
15:35	76.7	76.7	77.7	33	45.4	2	5	90	0.00	30.025 
15:40	76.8	76.8	77.9	35	47.1	1	6	90	0.00	30.025 
15:45	76.8	76.8	77.5	29	42.1	2	7	90	0.00	30.024 
15:50	76.8	76.8	77.6	30	43.0	2	5	90	0.00	30.024 
15:55	76.8	76.8	77.7	31	43.9	1	3	90	0.00	30.024 
16:00	76.8	76.8	77.7	31	43.9	2	5	90	0.00	30.029 
16:05	76.7	76.7	77.3	27	40.2	1	3	90	0.00	30.029 
16:10	76.7	76.7	77.4	28	41.1	1	3	90	0.00	30.029 
16:15	76.7	76.7	77.3	27	40.2	2	5	90	0.00	30.029 
16:20	76.7	76.7	77.3	27	40.2	2	5	90	0.00	30.029 
16:25	76.7	76.7	77.4	28	41.1	2	5	90	0.00	30.029 
16:30	76.7	76.7	77.4	28	41.1	1	3	90	0.00	30.029 
16:35	76.7	76.7	77.4	28	41.1	1	3	112	0.00	30.029 
16:40	76.8	76.8	77.5	28	41.2	1	5	90	0.00	30.029 
16:45	76.8	76.8	77.4	27	40.3	1	2	90	0.00	30.032 
16:50	76.8	76.8	77.3	26	39.3	1	4	90	0.00	30.032 
16:55	76.8	76.8	77.3	26	39.3	1	3	90	0.00	30.032 
17:00	76.8	76.8	77.4	27	40.3	0	3	90	0.00	30.033 
17:05	76.7	76.7	77.3	27	40.2	1	4	90	0.00	30.033 
17:10	76.7	76.7	77.3	27	40.2	1	3	68	0.00	30.033 
17:15	76.7	76.7	77.3	26	39.2	1	5	90	0.00	30.031 
17:20	76.7	76.7	77.3	27	40.2	1	5	90	0.00	30.031 
17:25	76.7	76.7	77.3	27	40.2	2	4	68	0.00	30.031 
17:30	76.7	76.7	77.3	27	40.2	1	4	68	0.00	30.032 
17:35	76.7	76.7	77.5	30	42.9	0	3	68	0.00	30.032 
17:40	76.5	76.5	77.4	29	41.9	1	3	68	0.00	30.032 
17:45	76.5	76.5	77.3	28	41.0	1	3	68	0.00	30.031 
17:50	76.3	76.3	77.2	28	40.8	1	4	68	0.00	30.031 
17:55	76.3	76.3	77.2	27	39.8	1	3	90	0.00	30.031 
18:00	76.3	76.3	77.2	27	39.8	1	2	90	0.00	30.034 
18:05	76.1	76.1	77.2	29	41.5	1	3	90	0.00	30.034 
18:10	76.1	76.1	77.2	29	41.5	1	3	90	0.00	30.034 
18:15	76.0	76.0	77.2	29	41.4	1	3	90	0.00	30.039 
18:20	76.0	76.0	77.1	28	40.5	1	4	90	0.00	30.039 
18:25	75.8	75.8	77.1	29	41.3	0	1	90	0.00	30.039 
18:30	75.6	75.6	77.1	30	42.0	0	1	90	0.00	30.040 
18:35	75.4	75.4	77.1	30	41.8	0	3	90	0.00	30.040 
18:40	75.1	75.1	77.0	31	42.4	0	3	90	0.00	30.040 
18:45	74.9	74.9	74.9	30	41.4	0	2	90	0.00	30.042 
18:50	74.6	74.6	74.6	32	42.8	0	2	90	0.00	30.042 
18:55	74.4	74.4	74.4	33	43.4	1	2	90	0.00	30.042 
19:00	74.0	74.0	74.0	34	43.8	1	3	90	0.00	30.046 
19:05	73.9	73.9	73.9	34	43.7	1	3	90	0.00	30.046 
19:10	73.5	73.5	73.5	36	44.9	0	2	90	0.00	30.046 
19:15	73.0	73.0	73.0	37	45.2	0	2	90	0.00	30.050 
19:20	72.5	72.5	72.5	38	45.4	0	0	---	0.00	30.050 
19:25	71.8	71.8	71.8	38	44.8	0	0	---	0.00	30.050 
19:30	71.1	71.1	71.1	39	44.9	0	0	---	0.00	30.051 
19:35	70.4	70.4	70.4	40	44.9	0	0	---	0.00	30.051 
19:40	69.6	69.6	69.6	41	44.8	0	0	---	0.00	30.051 
19:45	68.9	68.9	68.9	42	44.9	0	0	---	0.00	30.057 
19:50	68.3	68.3	68.3	44	45.5	0	0	---	0.00	30.057 
19:55	67.8	67.8	67.8	44	45.1	0	0	---	0.00	30.057 
20:00	67.1	67.1	67.1	46	45.6	0	0	---	0.00	30.068 
20:05	66.4	66.4	66.4	48	46.1	0	1	90	0.00	30.068 
20:10	65.8	65.8	65.8	47	45.0	0	2	90	0.00	30.068 
20:15	65.6	65.6	65.6	46	44.3	0	1	90	0.00	30.067 
20:20	65.8	65.8	65.8	44	43.3	1	4	90	0.00	30.067 
20:25	66.0	66.0	66.0	43	42.9	1	2	90	0.00	30.067 
20:30	66.1	66.1	66.1	43	42.9	1	3	90	0.00	30.071 
20:35	66.1	66.1	66.1	43	42.9	1	3	90	0.00	30.071 
20:40	66.0	66.0	66.0	43	42.9	1	2	90	0.00	30.071 
20:45	65.6	65.6	65.6	43	42.5	1	4	90	0.00	30.079 
20:50	65.3	65.3	65.3	44	42.8	0	2	90	0.00	30.079 
20:55	65.0	65.0	65.0	45	43.1	0	2	90	0.00	30.079 
21:00	64.7	64.7	64.7	45	42.9	1	3	90	0.00	30.084 
21:05	64.3	64.3	64.3	46	43.1	1	3	90	0.00	30.084 
21:10	64.0	64.0	64.0	46	42.8	0	2	90	0.00	30.084 
21:15	63.7	63.7	63.7	47	43.1	0	1	90	0.00	30.082 
21:20	63.4	63.4	63.4	47	42.8	0	2	90	0.00	30.082 
21:25	63.1	63.1	63.1	47	42.5	1	4	68	0.00	30.082 
21:30	62.9	62.9	62.9	47	42.4	1	2	68	0.00	30.085 
21:35	62.7	62.7	62.7	47	42.2	1	2	68	0.00	30.085 
21:40	62.6	62.6	62.6	46	41.5	1	2	68	0.00	30.085 
21:45	62.6	62.6	62.6	46	41.5	1	3	68	0.00	30.087 
21:50	62.4	62.4	62.4	46	41.3	0	2	68	0.00	30.087 
21:55	62.1	62.1	62.1	46	41.1	0	2	68	0.00	30.087 
22:00	61.8	61.8	61.8	46	40.8	0	2	68	0.00	30.098 
22:05	61.6	61.6	61.6	45	40.0	1	2	68	0.00	30.098 
22:10	61.3	61.3	61.3	45	39.8	0	2	68	0.00	30.098 
22:15	61.2	61.2	61.2	45	39.7	0	2	68	0.00	30.094 
22:20	61.0	61.0	61.0	45	39.5	0	1	68	0.00	30.094 
22:25	60.7	60.7	60.7	45	39.2	0	2	68	0.00	30.094 
22:30	60.5	60.5	60.5	46	39.6	0	1	68	0.00	30.095 
22:35	60.1	60.1	60.1	47	39.8	0	1	68	0.00	30.095 
22:40	59.6	59.6	59.6	47	39.3	0	0	---	0.00	30.095 
22:45	59.2	59.2	59.2	48	39.5	0	0	---	0.00	30.097 
22:50	58.7	58.7	58.7	49	39.6	0	1	68	0.00	30.097 
22:55	58.4	58.4	58.4	49	39.3	0	1	68	0.00	30.097 
23:00	58.1	58.1	58.1	50	39.6	0	0	---	0.00	30.100 
23:05	57.8	57.8	57.8	50	39.3	0	0	---	0.00	30.100 
23:10	57.3	57.3	57.3	53	40.3	0	0	---	0.00	30.100 
23:15	56.7	56.7	56.7	54	40.2	0	0	---	0.00	30.095 
23:20	56.3	56.3	56.3	54	39.9	0	0	---	0.00	30.095 
23:25	55.9	55.9	55.9	55	40.0	0	1	68	0.00	30.095 
23:30	55.4	55.4	55.4	55	39.5	0	0	---	0.00	30.097 
23:35	55.1	55.1	55.1	55	39.2	0	0	---	0.00	30.097 
23:40	54.8	54.8	54.8	56	39.4	0	0	---	0.00	30.097 
23:45	54.5	54.5	54.5	58	40.0	0	0	---	0.00	30.103 
23:50	54.2	54.2	54.2	59	40.2	0	0	---	0.00	30.103 
23:55	53.9	53.9	53.9	59	39.9	0	0	---	0.00	30.103 

CoCoRaHS
IN-AL-39
A2 Web Hosting
Creative Commons License
GoDaddy
search engine by freefind advanced

loaded 2018-11-19 10:17:51 • last modified 2010-11-18 10:43:29
Privacy PolicyDisclaimer
• wx.awcolley.com is powered by PmWiki v.2002016 •
• all content (unless otherwise noted) © 2018 A W Colley